createdAt,value
2023-04-05T00:01:07.527Z,1.35
2023-04-05T00:03:34.775Z,1.35
2023-04-05T00:06:02.758Z,1.50
2023-04-05T00:08:29.620Z,1.70
2023-04-05T00:10:56.389Z,2.03
2023-04-05T00:13:23.450Z,1.52
2023-04-05T00:15:50.554Z,1.58
2023-04-05T00:18:23.788Z,1.63
2023-04-05T00:20:51.345Z,1.17
2023-04-05T00:23:18.096Z,1.67
2023-04-05T00:25:45.308Z,2.03
2023-04-05T00:28:12.928Z,1.40
2023-04-05T00:30:40.201Z,1.58
2023-04-05T00:33:07.027Z,1.23
2023-04-05T00:35:33.721Z,1.30
2023-04-05T00:38:00.504Z,1.27
2023-04-05T00:40:27.555Z,1.40
2023-04-05T00:42:54.176Z,1.20
2023-04-05T00:45:21.152Z,1.30
2023-04-05T00:47:48.072Z,1.42
2023-04-05T00:50:15.958Z,1.20
2023-04-05T00:52:44.022Z,1.08
2023-04-05T00:55:11.009Z,2.30
2023-04-05T00:57:39.167Z,1.13
2023-04-05T01:00:09.442Z,1.20
2023-04-05T01:02:57.905Z,1.20
2023-04-05T01:05:55.653Z,1.00
2023-04-05T01:09:00.298Z,1.30
2023-04-05T01:11:28.680Z,1.30
2023-04-05T01:14:04.058Z,1.55
2023-04-05T01:16:30.729Z,1.33
2023-04-05T01:18:58.309Z,2.35
2023-04-05T01:21:39.715Z,1.17
2023-04-05T01:24:25.145Z,1.13
2023-04-05T01:27:16.436Z,1.45
2023-04-05T01:29:57.247Z,1.02
2023-04-05T01:32:29.627Z,1.45
2023-04-05T01:35:15.479Z,0.88
2023-04-05T01:37:44.697Z,1.33
2023-04-05T01:40:11.638Z,0.88
2023-04-05T01:42:38.363Z,0.90
2023-04-05T01:45:05.644Z,1.15
2023-04-05T01:47:32.683Z,1.15
2023-04-05T01:49:59.496Z,1.02
2023-04-05T01:52:26.125Z,1.38
2023-04-05T01:54:52.730Z,1.45
2023-04-05T01:57:19.351Z,1.58
2023-04-05T01:59:46.016Z,1.13
2023-04-05T02:02:12.660Z,1.20
2023-04-05T02:04:39.253Z,1.98
2023-04-05T02:07:06.045Z,1.00
2023-04-05T02:09:32.806Z,2.58
2023-04-05T02:11:59.513Z,0.95
2023-04-05T02:14:26.222Z,1.08
2023-04-05T02:16:56.486Z,1.30
2023-04-05T02:19:23.547Z,1.30
2023-04-05T02:21:52.612Z,0.88
2023-04-05T02:24:19.961Z,1.00
2023-04-05T02:26:46.601Z,1.05
2023-04-05T02:29:13.342Z,1.15
2023-04-05T02:31:40.140Z,1.23
2023-04-05T02:34:09.181Z,0.90
2023-04-05T02:36:36.972Z,1.25
2023-04-05T02:39:04.547Z,0.93
2023-04-05T02:41:31.227Z,1.10
2023-04-05T02:43:58.879Z,1.20
2023-04-05T02:46:25.806Z,1.30
2023-04-05T02:48:52.497Z,0.80
2023-04-05T02:51:19.080Z,1.10
2023-04-05T02:53:46.430Z,1.45
2023-04-05T02:56:13.682Z,1.23
2023-04-05T02:58:41.088Z,1.05
2023-04-05T03:01:08.752Z,1.13
2023-04-05T03:03:35.908Z,1.05
2023-04-05T03:06:09.987Z,0.80
2023-04-05T03:08:38.798Z,1.00
2023-04-05T03:11:06.726Z,1.08
2023-04-05T03:13:33.595Z,1.50
2023-04-05T03:16:00.265Z,1.10
2023-04-05T03:18:27.492Z,0.85
2023-04-05T03:20:56.761Z,0.90
2023-04-05T03:23:28.642Z,1.23
2023-04-05T03:25:59.022Z,0.80
2023-04-05T03:28:26.187Z,1.00
2023-04-05T03:30:53.221Z,0.88
2023-04-05T03:33:20.946Z,1.10
2023-04-05T03:35:48.252Z,2.35
2023-04-05T03:38:15.351Z,1.63
2023-04-05T03:40:42.296Z,1.10
2023-04-05T03:43:09.148Z,1.15
2023-04-05T03:45:35.887Z,0.98
2023-04-05T03:48:03.146Z,0.93
2023-04-05T03:50:29.996Z,0.90
2023-04-05T03:52:56.919Z,1.10
2023-04-05T03:55:23.794Z,1.00
2023-04-05T03:57:52.113Z,0.80
2023-04-05T04:00:19.182Z,1.10
2023-04-05T04:02:48.059Z,1.05
2023-04-05T04:05:15.984Z,1.00
2023-04-05T04:07:43.659Z,0.82
2023-04-05T04:10:13.984Z,0.90
2023-04-05T04:12:40.866Z,0.90
2023-04-05T04:15:08.132Z,1.00
2023-04-05T04:17:36.986Z,1.27
2023-04-05T04:20:11.283Z,0.80
2023-04-05T04:22:40.261Z,0.90
2023-04-05T04:25:11.037Z,1.02
2023-04-05T04:27:40.102Z,0.93
2023-04-05T04:30:12.612Z,0.82
2023-04-05T04:32:53.173Z,0.90
2023-04-05T04:35:24.982Z,1.00
2023-04-05T04:37:57.933Z,1.02
2023-04-05T04:40:29.204Z,1.05
2023-04-05T04:42:58.643Z,0.90
2023-04-05T04:45:26.113Z,1.30
2023-04-05T04:47:53.765Z,1.40
2023-04-05T04:50:21.074Z,1.35
2023-04-05T04:52:48.295Z,2.97
2023-04-05T04:55:14.982Z,2.88
2023-04-05T04:57:42.533Z,1.35
2023-04-05T05:00:16.423Z,3.13
2023-04-05T05:02:44.090Z,1.42
2023-04-05T05:05:11.544Z,3.85
2023-04-05T05:07:40.978Z,5.05
2023-04-05T05:10:09.006Z,3.67
2023-04-05T05:12:35.731Z,2.67
2023-04-05T05:15:02.828Z,10.75
2023-04-05T05:17:29.412Z,4.47
2023-04-05T05:19:56.499Z,4.22
2023-04-05T05:22:23.206Z,4.70
2023-04-05T05:24:49.801Z,4.05
2023-04-05T05:27:16.471Z,5.47
2023-04-05T05:29:43.086Z,2.42
2023-04-05T05:32:14.259Z,3.05
2023-04-05T05:34:41.691Z,8.33
2023-04-05T05:37:09.353Z,3.47
2023-04-05T05:39:36.637Z,3.60
2023-04-05T05:42:03.397Z,5.70
2023-04-05T05:44:30.857Z,2.80
2023-04-05T05:46:58.543Z,4.55
2023-04-05T05:49:25.460Z,3.42
2023-04-05T05:51:52.894Z,5.75
2023-04-05T05:54:19.799Z,3.05
2023-04-05T05:56:46.490Z,3.47
2023-04-05T05:59:13.338Z,2.65
2023-04-05T06:01:42.964Z,2.20
2023-04-05T06:04:09.920Z,2.67
2023-04-05T06:06:37.822Z,3.40
2023-04-05T06:09:04.736Z,2.65
2023-04-05T06:11:31.340Z,3.40
2023-04-05T06:13:58.087Z,3.72
2023-04-05T06:16:24.705Z,4.00
2023-04-05T06:18:51.811Z,2.70
2023-04-05T06:21:18.409Z,2.88
2023-04-05T06:23:45.238Z,3.13
2023-04-05T06:26:20.438Z,6.25
2023-04-05T06:28:49.963Z,3.67
2023-04-05T06:31:17.609Z,2.08
2023-04-05T06:33:44.587Z,3.13
2023-04-05T06:36:11.819Z,3.38
2023-04-05T06:38:38.817Z,4.00
2023-04-05T06:41:05.491Z,2.53
2023-04-05T06:43:32.476Z,4.47
2023-04-05T06:45:59.335Z,2.13
2023-04-05T06:48:28.278Z,6.35
2023-04-05T06:51:02.590Z,2.92
2023-04-05T06:53:29.648Z,1.95
2023-04-05T06:55:57.825Z,3.00
2023-04-05T06:58:26.202Z,2.28
2023-04-05T07:00:53.754Z,4.03
2023-04-05T07:03:20.408Z,1.83
2023-04-05T07:05:59.122Z,2.35
2023-04-05T07:08:27.604Z,2.22
2023-04-05T07:10:54.405Z,2.00
2023-04-05T07:13:23.363Z,3.08
2023-04-05T07:15:50.354Z,1.92
2023-04-05T07:18:17.254Z,2.10
2023-04-05T07:20:48.393Z,3.42
2023-04-05T07:23:15.088Z,2.60
2023-04-05T07:25:41.850Z,2.58
2023-04-05T07:28:08.457Z,3.03
2023-04-05T07:30:36.302Z,1.98
2023-04-05T07:33:02.957Z,2.00
2023-04-05T07:35:29.748Z,2.60
2023-04-05T07:37:56.785Z,5.05
2023-04-05T07:40:23.504Z,3.63
2023-04-05T07:42:50.154Z,2.70
2023-04-05T07:45:16.891Z,1.70
2023-04-05T07:47:43.495Z,2.03
2023-04-05T07:50:12.020Z,2.10
2023-04-05T07:52:38.699Z,2.38
2023-04-05T07:55:05.892Z,1.77
2023-04-05T07:57:32.572Z,2.22
2023-04-05T07:59:59.182Z,2.05
2023-04-05T08:02:26.014Z,2.25
2023-04-05T08:04:52.716Z,2.05
2023-04-05T08:07:19.377Z,3.42
2023-04-05T08:09:45.998Z,2.58
2023-04-05T08:12:12.647Z,2.65
2023-04-05T08:14:39.237Z,2.22
2023-04-05T08:17:06.301Z,3.40
2023-04-05T08:19:32.878Z,1.77
2023-04-05T08:21:59.472Z,2.63
2023-04-05T08:24:26.110Z,1.95
2023-04-05T08:26:52.783Z,3.38
2023-04-05T08:29:19.357Z,3.50
2023-04-05T08:31:46.192Z,2.72
2023-04-05T08:34:12.848Z,1.80
2023-04-05T08:36:39.544Z,3.22
2023-04-05T08:39:06.154Z,2.72
2023-04-05T08:41:40.894Z,2.75
2023-04-05T08:44:10.561Z,2.08
2023-04-05T08:46:37.630Z,3.08
2023-04-05T08:49:08.568Z,1.85
2023-04-05T08:51:41.680Z,2.47
2023-04-05T08:54:08.362Z,2.28
2023-04-05T08:56:36.182Z,1.88
2023-04-05T08:59:07.886Z,2.35
2023-04-05T09:01:38.956Z,1.92
2023-04-05T09:04:28.149Z,1.98
2023-04-05T09:06:58.969Z,2.20
2023-04-05T09:09:26.374Z,2.55
2023-04-05T09:11:53.111Z,2.25
2023-04-05T09:14:21.243Z,1.90
2023-04-05T09:16:47.929Z,1.77
2023-04-05T09:19:14.676Z,2.65
2023-04-05T09:22:01.059Z,2.25
2023-04-05T09:24:35.213Z,1.73
2023-04-05T09:27:14.781Z,3.60
2023-04-05T09:29:49.464Z,2.60
2023-04-05T09:32:19.144Z,1.73
2023-04-05T09:34:45.889Z,2.13
2023-04-05T09:37:13.398Z,3.10
2023-04-05T09:39:40.323Z,1.83
2023-04-05T09:42:15.667Z,2.97
2023-04-05T09:45:07.143Z,2.92
2023-04-05T09:47:36.720Z,2.55
2023-04-05T09:50:15.072Z,1.77
2023-04-05T09:52:42.261Z,1.83
2023-04-05T09:55:09.953Z,2.55
2023-04-05T09:57:43.609Z,2.17
2023-04-05T10:00:21.215Z,2.05
2023-04-05T10:02:53.355Z,2.35
2023-04-05T10:05:24.127Z,2.28
2023-04-05T10:07:52.315Z,1.80
2023-04-05T10:10:20.979Z,2.10
2023-04-05T10:12:49.158Z,1.73
2023-04-05T10:15:16.632Z,1.73
2023-04-05T10:17:56.286Z,2.78
2023-04-05T10:20:24.269Z,4.28
2023-04-05T10:23:22.234Z,2.33
2023-04-05T10:25:53.235Z,1.60
2023-04-05T10:28:22.972Z,2.92
2023-04-05T10:30:53.954Z,2.92
2023-04-05T10:33:27.648Z,1.63
2023-04-05T10:35:57.141Z,2.10
2023-04-05T10:38:27.222Z,2.25
2023-04-05T10:40:57.243Z,1.83
2023-04-05T10:43:26.823Z,3.35
2023-04-05T10:45:55.599Z,1.98
2023-04-05T10:48:49.637Z,1.42
2023-04-05T10:51:16.338Z,1.60
2023-04-05T10:53:44.201Z,1.98
2023-04-05T10:56:12.367Z,2.60
2023-04-05T10:58:42.212Z,1.98
2023-04-05T11:01:09.891Z,1.73
2023-04-05T11:03:45.746Z,1.45
2023-04-05T11:06:48.216Z,1.88
2023-04-05T11:09:22.453Z,2.95
2023-04-05T11:11:51.811Z,1.63
2023-04-05T11:14:28.460Z,2.17
2023-04-05T11:16:59.781Z,2.13
2023-04-05T11:19:48.696Z,1.65
2023-04-05T11:22:27.469Z,2.20
2023-04-05T11:24:59.199Z,2.05
2023-04-05T11:27:31.726Z,1.52
2023-04-05T11:30:00.374Z,2.05
2023-04-05T11:32:45.873Z,1.58
2023-04-05T11:35:14.884Z,1.80
2023-04-05T11:38:00.225Z,2.72
2023-04-05T11:40:33.214Z,1.70
2023-04-05T11:43:07.347Z,2.03
2023-04-05T11:45:35.352Z,2.47
2023-04-05T11:48:06.343Z,1.67
2023-04-05T11:50:33.727Z,1.90
2023-04-05T11:53:14.680Z,2.15
2023-04-05T11:55:46.829Z,2.08
2023-04-05T12:00:45.442Z,2.38
2023-04-05T12:03:14.005Z,2.15
2023-04-05T12:05:51.216Z,1.95
2023-04-05T12:08:22.058Z,1.92
2023-04-05T12:11:01.159Z,2.00
2023-04-05T12:13:29.688Z,2.00
2023-04-05T12:16:01.684Z,1.80
2023-04-05T12:20:57.017Z,1.60
2023-04-05T12:23:24.892Z,2.60
2023-04-05T12:25:53.619Z,2.78
2023-04-05T12:28:20.478Z,1.88
2023-04-05T12:30:54.717Z,2.00
2023-04-05T12:33:28.829Z,2.10
2023-04-05T12:35:55.691Z,1.92
2023-04-05T12:38:27.182Z,2.13
2023-04-05T12:40:54.841Z,3.03
2023-04-05T12:43:21.571Z,1.58
2023-04-05T12:45:50.486Z,3.53
2023-04-05T12:48:25.878Z,1.98
2023-04-05T12:50:53.596Z,1.90
2023-04-05T12:53:23.250Z,1.92
2023-04-05T12:55:54.913Z,2.28
2023-04-05T12:58:24.040Z,2.80
2023-04-05T13:00:50.742Z,1.90
2023-04-05T13:03:21.036Z,2.13
2023-04-05T13:05:51.387Z,2.08
2023-04-05T13:08:18.545Z,1.80
2023-04-05T13:10:46.607Z,1.55
2023-04-05T13:13:17.795Z,1.73
2023-04-05T13:15:45.662Z,2.20
2023-04-05T13:18:14.830Z,2.33
2023-04-05T13:20:45.841Z,1.60
2023-04-05T13:23:13.121Z,1.60
2023-04-05T13:25:41.420Z,1.90
2023-04-05T13:28:09.036Z,1.60
2023-04-05T13:30:35.989Z,1.73
2023-04-05T13:33:04.392Z,1.70
2023-04-05T13:35:31.421Z,1.50
2023-04-05T13:37:58.136Z,1.55
2023-04-05T13:40:24.758Z,1.38
2023-04-05T13:42:51.318Z,2.15
2023-04-05T13:45:18.069Z,2.00
2023-04-05T13:47:44.747Z,1.83
2023-04-05T13:50:11.494Z,2.22
2023-04-05T13:52:38.183Z,2.08
2023-04-05T13:55:05.454Z,2.63
2023-04-05T13:57:32.357Z,2.25
2023-04-05T13:59:59.251Z,2.08
2023-04-05T14:02:27.185Z,2.47
2023-04-05T14:04:54.491Z,2.28
2023-04-05T14:07:21.967Z,3.28
2023-04-05T14:09:48.625Z,1.98
2023-04-05T14:12:15.338Z,2.53
2023-04-05T14:14:42.100Z,2.08
2023-04-05T14:17:08.820Z,1.95
2023-04-05T14:19:35.740Z,3.38
2023-04-05T14:22:02.569Z,1.85
2023-04-05T14:24:29.279Z,2.38
2023-04-05T14:26:58.544Z,2.63
2023-04-05T14:29:25.938Z,3.00
2023-04-05T14:31:54.465Z,3.58
2023-04-05T14:34:21.218Z,1.98
2023-04-05T14:36:47.941Z,2.08
2023-04-05T14:39:14.570Z,1.88
2023-04-05T14:41:41.234Z,1.50
2023-04-05T14:44:07.921Z,1.77
2023-04-05T14:46:34.637Z,1.88
2023-04-05T14:49:01.530Z,1.45
2023-04-05T14:51:28.273Z,2.05
2023-04-05T14:53:55.016Z,1.98
2023-04-05T14:56:21.693Z,1.88
2023-04-05T14:58:48.331Z,1.58
2023-04-05T15:01:15.372Z,1.65
2023-04-05T15:03:42.321Z,1.65
2023-04-05T15:06:09.111Z,2.28
2023-04-05T15:08:35.856Z,1.60
2023-04-05T15:11:02.584Z,2.30
2023-04-05T15:13:29.242Z,2.10
2023-04-05T15:15:55.953Z,1.30
2023-04-05T15:18:22.718Z,1.92
2023-04-05T15:20:49.825Z,1.80
2023-04-05T15:23:16.583Z,1.80
2023-04-05T15:25:43.240Z,1.70
2023-04-05T15:28:09.912Z,2.05
2023-04-05T15:30:37.566Z,1.60
2023-04-05T15:33:04.524Z,1.77
2023-04-05T15:35:31.822Z,1.73
2023-04-05T15:37:58.680Z,2.05
2023-04-05T15:40:25.453Z,1.42
2023-04-05T15:42:52.162Z,1.85
2023-04-05T15:45:18.921Z,2.28
2023-04-05T15:47:45.630Z,1.50
2023-04-05T15:50:12.418Z,1.63
2023-04-05T15:52:39.167Z,1.52
2023-04-05T15:55:06.307Z,1.42
2023-04-05T15:57:33.013Z,1.88
2023-04-05T15:59:59.639Z,1.42
2023-04-05T16:02:26.483Z,1.48
2023-04-05T16:04:53.210Z,1.92
2023-04-05T16:07:19.975Z,1.77
2023-04-05T16:09:46.661Z,2.25
2023-04-05T16:12:13.520Z,1.92
2023-04-05T16:14:40.272Z,1.50
2023-04-05T16:17:07.056Z,1.63
2023-04-05T16:19:33.791Z,1.40
2023-04-05T16:22:02.926Z,1.42
2023-04-05T16:24:30.056Z,2.40
2023-04-05T16:26:56.876Z,2.03
2023-04-05T16:29:23.505Z,1.95
2023-04-05T16:31:50.215Z,1.80
2023-04-05T16:34:16.894Z,1.35
2023-04-05T16:36:43.600Z,1.40
2023-04-05T16:39:10.367Z,1.50
2023-04-05T16:41:37.069Z,1.33
2023-04-05T16:44:03.811Z,1.65
2023-04-05T16:46:32.116Z,2.22
2023-04-05T16:48:59.712Z,1.10
2023-04-05T16:51:27.530Z,1.33
2023-04-05T16:53:54.834Z,1.48
2023-04-05T16:56:21.752Z,1.42
2023-04-05T16:58:48.458Z,1.75
2023-04-05T17:01:15.659Z,1.40
2023-04-05T17:03:46.843Z,1.45
2023-04-05T17:06:14.395Z,1.75
2023-04-05T17:08:41.334Z,1.75
2023-04-05T17:11:08.216Z,1.50
2023-04-05T17:13:34.915Z,1.80
2023-04-05T17:16:01.897Z,1.70
2023-04-05T17:18:28.878Z,1.77
2023-04-05T17:20:55.743Z,1.92
2023-04-05T17:23:23.560Z,2.25
2023-04-05T17:25:50.210Z,2.40
2023-04-05T17:28:16.888Z,23.60
2023-04-05T17:30:43.638Z,11.63
2023-04-05T17:33:10.590Z,9.30
2023-04-05T17:35:37.928Z,4.10
2023-04-05T17:38:04.613Z,8.23
2023-04-05T17:40:31.415Z,13.30
2023-04-05T17:42:58.067Z,9.93
2023-04-05T17:45:24.765Z,6.88
2023-04-05T17:47:51.553Z,6.88
2023-04-05T17:50:18.385Z,10.02
2023-04-05T17:52:45.073Z,12.43
2023-04-05T17:55:11.841Z,6.43
2023-04-05T17:57:38.552Z,6.55
2023-04-05T18:00:06.079Z,6.18
2023-04-05T18:02:36.866Z,6.35
2023-04-05T18:05:07.341Z,7.45
2023-04-05T18:07:42.216Z,8.80
2023-04-05T18:10:09.411Z,7.40
2023-04-05T18:12:36.561Z,8.88
2023-04-05T18:15:03.736Z,9.65
2023-04-05T18:17:30.497Z,7.45
2023-04-05T18:19:57.232Z,5.35
2023-04-05T18:22:23.960Z,5.95
2023-04-05T18:24:50.627Z,6.28
2023-04-05T18:27:17.766Z,6.05
2023-04-05T18:29:46.125Z,4.82
2023-04-05T18:32:12.982Z,10.90
2023-04-05T18:34:39.717Z,4.07
2023-04-05T18:37:06.479Z,3.90
2023-04-05T18:39:33.173Z,3.90
2023-04-05T18:41:59.874Z,4.80
2023-04-05T18:44:26.524Z,5.95
2023-04-05T18:46:53.591Z,3.65
2023-04-05T18:49:21.270Z,3.90
2023-04-05T18:51:48.872Z,4.50
2023-04-05T18:54:18.265Z,3.55
2023-04-05T18:56:45.534Z,6.93
2023-04-05T18:59:12.644Z,4.07
2023-04-05T19:01:39.382Z,3.47
2023-04-05T19:04:06.680Z,3.13
2023-04-05T19:06:34.664Z,4.07
2023-04-05T19:09:01.484Z,3.58
2023-04-05T19:11:28.213Z,3.17
2023-04-05T19:13:55.020Z,3.67
2023-04-05T19:16:21.675Z,3.45
2023-04-05T19:18:48.415Z,3.45
2023-04-05T19:21:15.169Z,3.15
2023-04-05T19:23:42.008Z,3.90
2023-04-05T19:26:08.749Z,2.55
2023-04-05T19:28:35.725Z,4.78
2023-04-05T19:31:02.478Z,3.25
2023-04-05T19:33:31.567Z,5.22
2023-04-05T19:35:58.791Z,4.82
2023-04-05T19:38:25.619Z,2.95
2023-04-05T19:40:52.929Z,4.95
2023-04-05T19:43:19.689Z,3.90
2023-04-05T19:45:49.459Z,3.10
2023-04-05T19:48:34.380Z,3.58
2023-04-05T19:51:02.664Z,4.68
2023-04-05T19:53:40.588Z,3.78
2023-04-05T19:56:20.982Z,3.00
2023-04-05T19:58:49.557Z,5.10
2023-04-05T20:01:34.041Z,6.90
2023-04-05T20:04:08.324Z,7.72
2023-04-05T20:06:35.212Z,7.85
2023-04-05T20:09:06.307Z,7.20
2023-04-05T20:11:34.372Z,5.85
2023-04-05T20:14:02.081Z,6.97
2023-04-05T20:16:30.896Z,4.28
2023-04-05T20:19:08.942Z,5.38
2023-04-05T20:21:38.100Z,3.67
2023-04-05T20:24:08.728Z,7.03
2023-04-05T20:26:35.413Z,3.65
2023-04-05T20:29:04.100Z,5.93
2023-04-05T20:31:33.658Z,4.97
2023-04-05T20:34:32.457Z,3.28
2023-04-05T20:37:01.886Z,6.13
2023-04-05T20:39:30.318Z,5.30
2023-04-05T20:41:57.391Z,4.75
2023-04-05T20:44:25.805Z,4.40
2023-04-05T20:46:54.099Z,4.82
2023-04-05T20:49:22.172Z,4.70
2023-04-05T20:51:50.569Z,10.48
2023-04-05T20:54:19.513Z,4.43
2023-04-05T20:56:46.804Z,3.63
2023-04-05T20:59:14.619Z,5.75
2023-04-05T21:01:42.733Z,5.55
2023-04-05T21:04:09.942Z,4.47
2023-04-05T21:06:37.211Z,5.68
2023-04-05T21:09:04.297Z,4.70
2023-04-05T21:11:31.026Z,3.72
2023-04-05T21:13:57.714Z,6.63
2023-04-05T21:16:24.568Z,7.30
2023-04-05T21:18:51.341Z,4.53
2023-04-05T21:21:17.969Z,3.67
2023-04-05T21:23:44.607Z,4.40
2023-04-05T21:26:11.228Z,2.95
2023-04-05T21:28:38.071Z,4.82
2023-04-05T21:31:04.834Z,2.92
2023-04-05T21:33:31.526Z,5.05
2023-04-05T21:35:58.284Z,3.15
2023-04-05T21:38:25.090Z,6.72
2023-04-05T21:40:51.796Z,6.03
2023-04-05T21:43:18.432Z,3.17
2023-04-05T21:45:45.704Z,2.97
2023-04-05T21:48:12.387Z,5.20
2023-04-05T21:50:39.049Z,6.25
2023-04-05T21:53:07.079Z,3.25
2023-04-05T21:55:33.777Z,2.85
2023-04-05T21:58:00.455Z,2.75
2023-04-05T22:00:27.559Z,2.75
2023-04-05T22:02:54.270Z,2.85
2023-04-05T22:05:33.822Z,2.42
2023-04-05T22:08:05.583Z,2.47
2023-04-05T22:10:32.733Z,2.55
2023-04-05T22:12:59.417Z,3.70
2023-04-05T22:15:26.329Z,3.85
2023-04-05T22:17:53.069Z,2.90
2023-04-05T22:20:19.833Z,2.60
2023-04-05T22:22:46.746Z,2.83
2023-04-05T22:25:13.415Z,2.80
2023-04-05T22:27:40.437Z,4.03
2023-04-05T22:30:08.310Z,3.10
2023-04-05T22:32:35.706Z,3.17
2023-04-05T22:35:04.328Z,2.75
2023-04-05T22:37:35.347Z,2.63
2023-04-05T22:40:04.862Z,2.88
2023-04-05T22:42:31.888Z,2.60
2023-04-05T22:44:58.569Z,2.80
2023-04-05T22:47:25.338Z,3.17
2023-04-05T22:49:52.255Z,3.58
2023-04-05T22:52:19.024Z,2.85
2023-04-05T22:54:45.877Z,2.67
2023-04-05T22:57:12.958Z,2.30
2023-04-05T22:59:39.785Z,2.20
2023-04-05T23:02:06.562Z,2.22
2023-04-05T23:04:33.290Z,2.63
2023-04-05T23:06:59.959Z,2.40
2023-04-05T23:09:27.449Z,2.60
2023-04-05T23:11:54.074Z,2.13
2023-04-05T23:14:20.850Z,2.30
2023-04-05T23:16:47.539Z,2.58
2023-04-05T23:19:14.249Z,3.17
2023-04-05T23:21:41.659Z,2.40
2023-04-05T23:24:08.470Z,2.30
2023-04-05T23:26:35.416Z,2.42
2023-04-05T23:29:02.149Z,2.40
2023-04-05T23:31:29.532Z,2.40
2023-04-05T23:33:56.410Z,2.13
2023-04-05T23:36:23.213Z,2.38
2023-04-05T23:38:49.889Z,2.65
2023-04-05T23:41:16.590Z,2.40
2023-04-05T23:43:43.240Z,1.90
2023-04-05T23:46:10.553Z,2.20
2023-04-05T23:48:37.335Z,2.13
2023-04-05T23:51:04.312Z,2.20
2023-04-05T23:53:31.125Z,2.28
2023-04-05T23:55:57.804Z,2.28
2023-04-05T23:58:24.456Z,2.13
